Time;durP1;ratioP1;P1;durP2;ratioP2;P2;SDS_P1;SDS_P2;PMS_P1;PMS_P2;Temp;Humidity;BMP_temperature;BMP_pressure;BME280_temperature;BME280_humidity;BME280_pressure;Samples;Min_cycle;Max_cycle;Signal;HPM_P1;HPM_P2
2022/04/12 00:00:53;;;;;;;4.53;3.60;;;;;;;;;;6084825;29;20237;-70
2022/04/12 00:04:14;;;;;;;5.97;3.23;;;;;;;;;;6084055;29;20602;-71
2022/04/12 00:07:34;;;;;;;4.40;3.10;;;;;;;;;;6075311;29;20237;-70
2022/04/12 00:10:57;;;;;;;5.77;2.77;;;;;;;;;;6084244;29;20225;-69
2022/04/12 00:14:18;;;;;;;5.83;3.47;;;;;;;;;;6081015;29;20607;-70
2022/04/12 00:21:17;;;;;;;4.47;3.03;;;;;;;;;;6077740;29;20267;-70
2022/04/12 00:24:38;;;;;;;4.73;3.63;;;;;;;;;;6080161;29;20228;-70
2022/04/12 00:28:00;;;;;;;4.90;2.83;;;;;;;;;;6085801;29;20232;-69
2022/04/12 00:31:20;;;;;;;3.20;2.50;;;;;;;;;;6091015;29;20795;-70
2022/04/12 00:34:41;;;;;;;4.23;3.03;;;;;;;;;;6089189;29;20236;-71
2022/04/12 00:38:01;;;;;;;5.70;3.20;;;;;;;;;;6086121;29;20255;-70
2022/04/12 00:41:22;;;;;;;3.63;3.00;;;;;;;;;;6088172;29;20291;-70
2022/04/12 00:44:44;;;;;;;4.83;3.03;;;;;;;;;;6082695;29;20324;-69
2022/04/12 00:48:04;;;;;;;5.90;3.30;;;;;;;;;;6085840;29;20228;-69
2022/04/12 00:51:25;;;;;;;3.80;2.80;;;;;;;;;;6086428;29;20260;-70
2022/04/12 00:54:47;;;;;;;2.97;2.77;;;;;;;;;;6087152;29;20244;-70
2022/04/12 00:58:08;;;;;;;4.43;2.90;;;;;;;;;;6085230;29;20236;-69
2022/04/12 01:01:30;;;;;;;3.73;2.47;;;;;;;;;;6087520;29;20236;-70
2022/04/12 01:04:51;;;;;;;3.50;3.00;;;;;;;;;;6084207;29;20225;-70
2022/04/12 01:08:11;;;;;;;5.70;2.90;;;;;;;;;;6081335;29;20221;-69
2022/04/12 01:11:32;;;;;;;2.87;2.60;;;;;;;;;;6084182;29;20228;-69
2022/04/12 01:14:53;;;;;;;2.47;2.27;;;;;;;;;;6084602;29;20655;-70
2022/04/12 01:18:16;;;;;;;5.07;3.00;;;;;;;;;;6088979;29;20236;-68
2022/04/12 01:21:40;;;;;;;5.87;3.60;;;;;;;;;;6085696;29;20256;-69
2022/04/12 01:25:02;;;;;;;4.10;3.17;;;;;;;;;;6088840;29;20237;-69
2022/04/12 01:28:22;;;;;;;4.13;2.93;;;;;;;;;;6088550;29;20240;-70
2022/04/12 01:31:43;;;;;;;6.20;2.80;;;;;;;;;;6087735;29;20324;-69
2022/04/12 01:35:04;;;;;;;3.50;2.63;;;;;;;;;;6072973;29;20244;-70
2022/04/12 01:38:24;;;;;;;5.00;2.87;;;;;;;;;;6078180;29;20256;-69
2022/04/12 01:41:47;;;;;;;5.80;3.03;;;;;;;;;;6085948;29;20237;-69
2022/04/12 01:45:08;;;;;;;7.77;3.83;;;;;;;;;;6087435;29;20233;-69
2022/04/12 01:48:31;;;;;;;4.40;3.53;;;;;;;;;;6082117;29;20233;-71
2022/04/12 01:51:51;;;;;;;3.87;2.67;;;;;;;;;;6083462;29;20323;-70
2022/04/12 01:55:12;;;;;;;4.57;2.90;;;;;;;;;;6087787;29;20343;-70
2022/04/12 01:58:35;;;;;;;4.23;2.93;;;;;;;;;;6084047;29;20693;-69
2022/04/12 02:01:56;;;;;;;4.13;2.47;;;;;;;;;;6085362;29;20859;-68
2022/04/12 02:05:16;;;;;;;9.17;3.90;;;;;;;;;;6084763;29;20240;-70
2022/04/12 02:08:40;;;;;;;3.17;2.80;;;;;;;;;;6069999;29;20244;-69
2022/04/12 02:12:01;;;;;;;3.43;3.13;;;;;;;;;;6083389;29;20602;-69
2022/04/12 02:15:23;;;;;;;4.03;2.70;;;;;;;;;;6080115;29;20243;-69
2022/04/12 02:18:43;;;;;;;3.30;3.00;;;;;;;;;;6086021;29;20256;-68
2022/04/12 02:22:05;;;;;;;4.40;2.80;;;;;;;;;;6081996;29;20555;-70
2022/04/12 02:25:25;;;;;;;6.87;3.83;;;;;;;;;;6081978;29;20324;-70
2022/04/12 02:28:46;;;;;;;3.63;3.33;;;;;;;;;;6089066;29;20233;-68
2022/04/12 02:32:08;;;;;;;4.67;3.10;;;;;;;;;;6085353;29;20233;-69
2022/04/12 02:35:29;;;;;;;5.30;3.37;;;;;;;;;;6083128;29;20244;-69
2022/04/12 02:38:49;;;;;;;4.20;2.50;;;;;;;;;;6084865;29;20245;-69
2022/04/12 02:42:10;;;;;;;4.57;2.77;;;;;;;;;;6082278;29;20229;-69
2022/04/12 02:45:30;;;;;;;3.30;3.00;;;;;;;;;;6075512;29;20240;-70
2022/04/12 02:48:52;;;;;;;4.83;3.23;;;;;;;;;;6061000;29;20713;-68
2022/04/12 02:52:13;;;;;;;4.10;3.10;;;;;;;;;;6068493;29;22973;-70
2022/04/12 02:55:34;;;;;;;4.40;3.23;;;;;;;;;;6067993;29;20232;-69
2022/04/12 02:58:55;;;;;;;8.47;7.67;;;;;;;;;;6067705;29;20723;-69
2022/04/12 03:02:15;;;;;;;17.73;15.93;;;;;;;;;;6066315;29;20240;-70
2022/04/12 03:05:37;;;;;;;4.77;3.27;;;;;;;;;;6067700;29;20236;-68
2022/04/12 03:08:57;;;;;;;3.10;2.90;;;;;;;;;;6062857;29;20237;-68
2022/04/12 03:12:18;;;;;;;5.67;3.90;;;;;;;;;;6067206;29;20236;-68
2022/04/12 03:15:38;;;;;;;6.50;3.30;;;;;;;;;;6065952;29;20607;-69
2022/04/12 03:18:59;;;;;;;3.57;3.13;;;;;;;;;;6082283;29;20233;-69
2022/04/12 03:22:21;;;;;;;4.13;2.50;;;;;;;;;;6083085;29;20233;-69
2022/04/12 03:25:41;;;;;;;3.50;3.20;;;;;;;;;;6085658;29;20273;-70
2022/04/12 03:29:02;;;;;;;6.13;3.43;;;;;;;;;;6086045;29;20229;-68
2022/04/12 03:32:22;;;;;;;4.77;3.83;;;;;;;;;;6082910;29;20237;-69
2022/04/12 03:35:43;;;;;;;4.10;2.97;;;;;;;;;;6082456;29;20244;-68
2022/04/12 03:39:05;;;;;;;4.83;3.50;;;;;;;;;;6074431;29;20248;-67
2022/04/12 03:42:26;;;;;;;4.97;3.60;;;;;;;;;;6074453;29;20526;-69
2022/04/12 03:45:46;;;;;;;4.00;3.57;;;;;;;;;;6085711;29;20244;-69
2022/04/12 03:49:07;;;;;;;3.43;2.63;;;;;;;;;;6086168;29;20576;-69
2022/04/12 03:52:28;;;;;;;5.40;3.43;;;;;;;;;;6082797;29;20597;-68
2022/04/12 03:55:50;;;;;;;5.93;3.63;;;;;;;;;;6083533;29;20248;-69
2022/04/12 03:59:11;;;;;;;3.23;2.93;;;;;;;;;;6086524;29;20328;-69
2022/04/12 04:02:32;;;;;;;4.07;2.73;;;;;;;;;;6083752;29;20229;-69
2022/04/12 04:05:52;;;;;;;2.87;2.47;;;;;;;;;;6086112;29;20569;-69
2022/04/12 04:09:13;;;;;;;4.63;2.93;;;;;;;;;;6087800;29;20240;-69
2022/04/12 04:12:34;;;;;;;5.97;3.10;;;;;;;;;;6084731;29;20232;-69
2022/04/12 04:15:55;;;;;;;5.33;2.80;;;;;;;;;;6072145;29;20240;-70
2022/04/12 04:19:15;;;;;;;5.03;3.20;;;;;;;;;;6087044;29;20260;-69
2022/04/12 04:22:36;;;;;;;4.63;3.60;;;;;;;;;;6088129;29;20224;-69
2022/04/12 04:25:56;;;;;;;5.67;3.07;;;;;;;;;;6088834;29;20236;-69
2022/04/12 04:29:19;;;;;;;3.90;3.10;;;;;;;;;;6087164;29;20259;-70
2022/04/12 04:32:40;;;;;;;4.57;2.77;;;;;;;;;;6083074;29;20693;-69
2022/04/12 04:36:00;;;;;;;4.57;3.63;;;;;;;;;;6079614;29;20252;-69
2022/04/12 04:39:21;;;;;;;3.47;3.17;;;;;;;;;;6085604;29;20236;-69
2022/04/12 04:42:42;;;;;;;5.43;3.23;;;;;;;;;;6082141;29;20240;-68
2022/04/12 04:46:05;;;;;;;4.90;3.10;;;;;;;;;;6069734;29;20232;-69
2022/04/12 04:49:26;;;;;;;5.00;3.40;;;;;;;;;;6082188;29;20236;-69
2022/04/12 04:52:46;;;;;;;4.93;3.10;;;;;;;;;;6081342;29;20237;-70
2022/04/12 04:56:06;;;;;;;3.40;3.10;;;;;;;;;;6082599;29;20232;-70
2022/04/12 04:59:27;;;;;;;4.97;3.90;;;;;;;;;;6085660;29;20240;-69
2022/04/12 05:02:49;;;;;;;7.67;4.17;;;;;;;;;;6080543;29;20236;-70
2022/04/12 05:06:10;;;;;;;4.60;3.50;;;;;;;;;;6083679;29;20229;-69
2022/04/12 05:09:31;;;;;;;3.53;2.77;;;;;;;;;;6086962;29;20524;-70
2022/04/12 05:12:51;;;;;;;4.80;4.10;;;;;;;;;;6081086;29;20630;-70
2022/04/12 05:16:12;;;;;;;8.47;7.30;;;;;;;;;;6085439;29;20236;-69
2022/04/12 05:19:34;;;;;;;5.93;4.63;;;;;;;;;;6088212;29;20533;-69
2022/04/12 05:22:54;;;;;;;5.07;3.63;;;;;;;;;;6088440;29;20236;-69
2022/04/12 05:26:15;;;;;;;7.07;4.07;;;;;;;;;;6084692;29;20324;-69
2022/04/12 05:29:36;;;;;;;7.33;4.27;;;;;;;;;;6087299;29;20228;-69
2022/04/12 05:32:56;;;;;;;4.77;3.27;;;;;;;;;;6083369;29;20248;-70
2022/04/12 05:36:18;;;;;;;7.27;4.60;;;;;;;;;;6080908;29;20240;-68
2022/04/12 05:39:38;;;;;;;5.80;3.83;;;;;;;;;;6079522;29;20256;-70
2022/04/12 05:43:00;;;;;;;6.13;4.70;;;;;;;;;;6085298;29;20228;-70
2022/04/12 05:46:21;;;;;;;7.93;4.27;;;;;;;;;;6087654;29;21246;-69
2022/04/12 05:49:41;;;;;;;4.97;4.00;;;;;;;;;;6084302;29;20730;-74
2022/04/12 05:53:03;;;;;;;5.07;4.23;;;;;;;;;;6082372;29;20630;-70
2022/04/12 05:56:24;;;;;;;4.70;4.00;;;;;;;;;;6081401;29;20256;-70
2022/04/12 05:59:45;;;;;;;4.80;4.30;;;;;;;;;;6083696;29;20896;-69
2022/04/12 06:03:06;;;;;;;4.53;3.83;;;;;;;;;;6085378;29;20224;-68
2022/04/12 06:06:27;;;;;;;4.17;3.70;;;;;;;;;;6083190;29;20236;-69
2022/04/12 06:09:49;;;;;;;5.13;3.50;;;;;;;;;;6085468;29;20252;-70
2022/04/12 06:13:10;;;;;;;8.13;4.30;;;;;;;;;;6083760;29;20281;-69
2022/04/12 06:16:30;;;;;;;4.30;3.77;;;;;;;;;;6075162;29;20627;-69
2022/04/12 06:19:51;;;;;;;5.70;3.70;;;;;;;;;;6081495;29;20237;-70
2022/04/12 06:23:12;;;;;;;4.57;3.80;;;;;;;;;;6084282;29;20327;-70
2022/04/12 06:26:34;;;;;;;3.57;3.07;;;;;;;;;;6083348;29;20333;-70
2022/04/12 06:29:54;;;;;;;6.57;4.60;;;;;;;;;;6082295;29;20236;-70
2022/04/12 06:33:15;;;;;;;5.03;4.47;;;;;;;;;;6084102;29;20241;-70
2022/04/12 06:36:36;;;;;;;4.40;4.00;;;;;;;;;;6077807;29;20232;-72
2022/04/12 06:39:57;;;;;;;5.10;4.60;;;;;;;;;;6086165;29;20358;-70
2022/04/12 06:43:19;;;;;;;5.47;3.70;;;;;;;;;;6081028;29;20608;-71
2022/04/12 06:46:40;;;;;;;5.17;3.67;;;;;;;;;;6070003;29;20755;-71
2022/04/12 06:50:01;;;;;;;5.30;3.67;;;;;;;;;;6070501;29;20607;-70
2022/04/12 06:53:23;;;;;;;7.17;3.73;;;;;;;;;;6071353;29;20228;-72
2022/04/12 06:56:44;;;;;;;6.33;3.73;;;;;;;;;;6074806;29;20245;-68
2022/04/12 07:00:07;;;;;;;5.17;3.77;;;;;;;;;;6073025;29;20251;-70
2022/04/12 07:03:27;;;;;;;5.90;3.50;;;;;;;;;;6079538;29;20236;-70
2022/04/12 07:06:48;;;;;;;5.63;3.70;;;;;;;;;;6076337;29;20248;-71
2022/04/12 07:10:09;;;;;;;4.13;3.70;;;;;;;;;;6080643;29;20225;-69
2022/04/12 07:13:30;;;;;;;3.43;2.97;;;;;;;;;;6086557;29;20236;-69
2022/04/12 07:16:52;;;;;;;4.67;3.90;;;;;;;;;;6084530;29;20340;-69
2022/04/12 07:20:13;;;;;;;4.80;3.40;;;;;;;;;;6086402;29;20236;-70
2022/04/12 07:23:35;;;;;;;4.20;3.70;;;;;;;;;;6083181;29;20240;-73
2022/04/12 07:26:55;;;;;;;4.47;3.40;;;;;;;;;;6088170;29;20237;-71
2022/04/12 07:30:16;;;;;;;4.23;3.83;;;;;;;;;;6085275;29;20241;-70
2022/04/12 07:33:38;;;;;;;3.17;2.43;;;;;;;;;;6085865;29;20229;-70
2022/04/12 07:36:59;;;;;;;5.07;3.67;;;;;;;;;;6085697;29;20682;-67
2022/04/12 07:40:19;;;;;;;5.10;4.30;;;;;;;;;;6088276;29;20240;-68
2022/04/12 07:43:41;;;;;;;4.63;3.63;;;;;;;;;;6084203;29;20802;-69
2022/04/12 07:47:02;;;;;;;4.03;3.43;;;;;;;;;;6061301;29;20602;-67
2022/04/12 07:50:24;;;;;;;5.10;3.60;;;;;;;;;;6093397;29;20557;-68
2022/04/12 07:53:44;;;;;;;3.63;3.13;;;;;;;;;;6082456;29;20716;-68
2022/04/12 07:57:05;;;;;;;7.40;4.43;;;;;;;;;;6087130;29;20521;-68
2022/04/12 08:00:25;;;;;;;6.27;3.60;;;;;;;;;;6085598;29;20237;-67
2022/04/12 08:03:46;;;;;;;6.50;4.43;;;;;;;;;;6083647;29;20601;-70
2022/04/12 08:07:09;;;;;;;6.03;5.10;;;;;;;;;;6086511;29;20244;-68
2022/04/12 08:10:29;;;;;;;6.03;4.20;;;;;;;;;;6090958;29;20232;-70
2022/04/12 08:13:50;;;;;;;5.00;3.80;;;;;;;;;;6090751;29;20236;-70
2022/04/12 08:17:10;;;;;;;4.40;4.00;;;;;;;;;;6087241;29;20240;-69
2022/04/12 08:20:31;;;;;;;4.30;3.20;;;;;;;;;;6092185;29;20232;-71
2022/04/12 08:23:53;;;;;;;3.53;3.23;;;;;;;;;;6083847;29;20658;-69
2022/04/12 08:27:13;;;;;;;3.67;2.97;;;;;;;;;;6094493;29;20326;-69
2022/04/12 08:30:34;;;;;;;7.93;4.30;;;;;;;;;;6089853;29;20236;-69
2022/04/12 08:33:54;;;;;;;4.13;3.00;;;;;;;;;;6090812;29;20232;-72
2022/04/12 08:37:15;;;;;;;5.10;3.90;;;;;;;;;;6088028;29;20258;-71
2022/04/12 08:40:37;;;;;;;4.27;3.70;;;;;;;;;;6092002;29;20260;-70
2022/04/12 08:43:58;;;;;;;5.47;3.83;;;;;;;;;;6090801;29;20237;-69
2022/04/12 08:47:20;;;;;;;4.00;3.60;;;;;;;;;;6092158;29;20336;-71
2022/04/12 08:50:41;;;;;;;3.60;3.30;;;;;;;;;;6096938;29;20232;-71
2022/04/12 08:54:02;;;;;;;4.77;3.73;;;;;;;;;;6094831;29;20697;-69
2022/04/12 08:57:24;;;;;;;5.47;4.13;;;;;;;;;;6090288;29;20282;-71
2022/04/12 09:00:46;;;;;;;3.47;3.00;;;;;;;;;;6100336;29;20243;-73
2022/04/12 09:04:07;;;;;;;4.80;3.87;;;;;;;;;;6096133;29;20523;-72
2022/04/12 09:07:27;;;;;;;3.63;3.33;;;;;;;;;;6095001;29;20252;-70
2022/04/12 09:10:55;;;;;;;7.70;3.87;;;;;;;;;;6092065;29;20261;-72
2022/04/12 09:14:17;;;;;;;6.03;4.43;;;;;;;;;;6096914;29;20561;-73
2022/04/12 09:17:39;;;;;;;4.73;4.33;;;;;;;;;;6096493;29;20236;-71
2022/04/12 09:21:12;;;;;;;5.93;3.90;;;;;;;;;;6097058;29;20315;-70
2022/04/12 09:24:33;;;;;;;4.87;4.40;;;;;;;;;;6097505;29;20243;-69
2022/04/12 09:27:55;;;;;;;5.10;4.57;;;;;;;;;;6098266;29;20236;-69
2022/04/12 09:31:18;;;;;;;5.97;5.33;;;;;;;;;;6092087;29;20233;-70
2022/04/12 09:34:39;;;;;;;9.77;4.97;;;;;;;;;;6092562;29;21521;-67
2022/04/12 09:37:59;;;;;;;5.40;4.90;;;;;;;;;;6094058;29;20232;-69
2022/04/12 09:41:22;;;;;;;7.60;4.97;;;;;;;;;;6090626;29;20267;-69
2022/04/12 09:44:42;;;;;;;10.40;5.13;;;;;;;;;;6090792;29;20646;-68
2022/04/12 09:48:05;;;;;;;6.63;5.13;;;;;;;;;;6095909;29;20229;-69
2022/04/12 09:51:25;;;;;;;7.33;5.50;;;;;;;;;;6092298;29;20236;-68
2022/04/12 09:54:45;;;;;;;6.40;4.63;;;;;;;;;;6089340;29;20260;-68
2022/04/12 09:58:08;;;;;;;5.63;5.13;;;;;;;;;;6092548;29;20237;-69
2022/04/12 10:01:31;;;;;;;6.60;6.00;;;;;;;;;;6088880;29;20547;-71
2022/04/12 10:04:53;;;;;;;8.63;6.97;;;;;;;;;;6096400;29;20237;-68
2022/04/12 10:08:17;;;;;;;8.13;6.77;;;;;;;;;;6095967;29;20240;-71
2022/04/12 10:11:38;;;;;;;6.47;5.73;;;;;;;;;;6094482;29;20232;-71
2022/04/12 10:14:58;;;;;;;8.63;5.63;;;;;;;;;;6093755;29;20650;-71
2022/04/12 10:18:20;;;;;;;6.33;5.17;;;;;;;;;;6082173;29;20236;-69
2022/04/12 10:21:42;;;;;;;6.93;5.33;;;;;;;;;;6088385;29;20236;-69
2022/04/12 10:25:03;;;;;;;6.03;4.97;;;;;;;;;;6091165;29;20319;-69
2022/04/12 10:28:24;;;;;;;5.93;5.33;;;;;;;;;;6085322;29;20228;-69
2022/04/12 10:31:54;;;;;;;7.37;6.17;;;;;;;;;;6083854;29;20232;-69
2022/04/12 10:35:15;;;;;;;7.13;5.83;;;;;;;;;;6085882;29;20231;-69
2022/04/12 10:38:41;;;;;;;6.10;5.50;;;;;;;;;;6078612;29;20606;-68
2022/04/12 10:42:03;;;;;;;6.87;5.70;;;;;;;;;;6081722;29;20232;-68
2022/04/12 10:45:31;;;;;;;7.90;7.00;;;;;;;;;;6078179;29;20257;-68
2022/04/12 10:48:55;;;;;;;6.03;5.20;;;;;;;;;;6074877;29;20544;-69
2022/04/12 10:52:16;;;;;;;8.07;5.90;;;;;;;;;;6081359;29;20233;-68
2022/04/12 10:55:40;;;;;;;6.57;5.80;;;;;;;;;;6088255;29;20544;-69
2022/04/12 10:59:01;;;;;;;7.03;5.93;;;;;;;;;;6091565;29;20272;-68
2022/04/12 11:02:22;;;;;;;6.37;5.33;;;;;;;;;;6093977;29;20244;-69
2022/04/12 11:05:53;;;;;;;7.17;5.83;;;;;;;;;;6090684;29;22172;-68
2022/04/12 11:09:16;;;;;;;9.53;6.20;;;;;;;;;;6081209;29;20235;-69
2022/04/12 11:12:42;;;;;;;8.57;6.47;;;;;;;;;;6080158;29;20641;-69
2022/04/12 11:16:07;;;;;;;6.20;5.60;;;;;;;;;;6078575;29;20717;-69
2022/04/12 11:19:28;;;;;;;6.73;4.73;;;;;;;;;;6076998;29;20647;-68
2022/04/12 11:22:56;;;;;;;7.07;6.37;;;;;;;;;;6076255;29;20515;-69
2022/04/12 11:26:27;;;;;;;7.50;6.80;;;;;;;;;;6068996;29;20323;-69
2022/04/12 11:29:56;;;;;;;7.17;6.10;;;;;;;;;;6075163;29;20248;-69
2022/04/12 11:33:17;;;;;;;6.83;6.23;;;;;;;;;;6072187;29;20228;-68
2022/04/12 11:36:38;;;;;;;6.95;6.35;;;;;;;;;;6073770;29;20278;-68
2022/04/12 11:39:59;;;;;;;9.30;6.50;;;;;;;;;;6086550;29;20327;-70
2022/04/12 11:43:24;;;;;;;7.00;6.30;;;;;;;;;;6072680;29;20908;-69
2022/04/12 11:46:45;;;;;;;6.88;6.20;;;;;;;;;;6073779;29;20236;-69
2022/04/12 11:50:14;;;;;;;8.70;5.70;;;;;;;;;;6073409;29;20320;-69
2022/04/12 11:53:46;;;;;;;7.13;6.43;;;;;;;;;;6069840;29;20235;-71
2022/04/12 11:57:07;;;;;;;7.15;6.07;;;;;;;;;;6071469;29;20514;-69
2022/04/12 12:00:30;;;;;;;7.82;6.15;;;;;;;;;;6069011;29;20697;-68
2022/04/12 12:03:52;;;;;;;6.63;5.82;;;;;;;;;;6069747;29;20240;-69
2022/04/12 12:07:13;;;;;;;8.85;6.28;;;;;;;;;;6074792;29;20320;-69
2022/04/12 12:10:33;;;;;;;6.57;5.75;;;;;;;;;;6076508;29;20624;-68
2022/04/12 12:13:57;;;;;;;6.65;5.95;;;;;;;;;;6072725;29;20275;-68
2022/04/12 12:17:20;;;;;;;7.75;6.43;;;;;;;;;;6074869;29;20767;-68
2022/04/12 12:20:42;;;;;;;5.90;5.32;;;;;;;;;;6077964;29;20246;-67
2022/04/12 12:24:06;;;;;;;6.22;5.63;;;;;;;;;;6076309;29;20236;-67
2022/04/12 12:27:27;;;;;;;7.15;6.55;;;;;;;;;;6083931;29;20240;-68
2022/04/12 12:30:48;;;;;;;7.85;6.50;;;;;;;;;;6085936;29;20256;-69
2022/04/12 12:34:09;;;;;;;7.28;6.57;;;;;;;;;;6087115;29;20232;-70
2022/04/12 12:37:31;;;;;;;7.10;6.47;;;;;;;;;;6079750;29;20240;-69
2022/04/12 12:40:55;;;;;;;6.50;5.90;;;;;;;;;;6073330;29;20232;-68
2022/04/12 12:44:15;;;;;;;7.68;6.38;;;;;;;;;;6077803;29;20228;-68
2022/04/12 12:47:36;;;;;;;7.72;7.03;;;;;;;;;;6076545;29;20236;-71
2022/04/12 12:50:57;;;;;;;7.00;6.38;;;;;;;;;;6081985;29;20236;-69
2022/04/12 12:54:19;;;;;;;7.10;6.47;;;;;;;;;;6081088;29;20256;-69
2022/04/12 12:57:40;;;;;;;6.47;5.53;;;;;;;;;;6084016;29;20239;-70
2022/04/12 13:01:02;;;;;;;6.22;5.57;;;;;;;;;;6084705;29;20224;-72
2022/04/12 13:04:23;;;;;;;7.90;6.65;;;;;;;;;;6079931;29;20247;-70
2022/04/12 13:07:43;;;;;;;7.43;6.72;;;;;;;;;;6081906;29;20244;-71
2022/04/12 13:11:05;;;;;;;7.72;6.93;;;;;;;;;;6085645;29;20232;-70
2022/04/12 13:14:26;;;;;;;7.40;6.72;;;;;;;;;;6081026;29;20232;-70
2022/04/12 13:17:47;;;;;;;8.55;6.88;;;;;;;;;;6080367;29;20466;-68
2022/04/12 13:21:11;;;;;;;7.20;6.50;;;;;;;;;;6081221;29;20253;-68
2022/04/12 13:24:33;;;;;;;7.53;6.82;;;;;;;;;;6075651;29;20328;-72
2022/04/12 13:27:55;;;;;;;8.02;6.70;;;;;;;;;;6073882;29;20622;-69
2022/04/12 13:31:15;;;;;;;7.75;6.93;;;;;;;;;;6074425;29;20233;-69
2022/04/12 13:34:36;;;;;;;7.82;6.85;;;;;;;;;;6081538;29;21134;-72
2022/04/12 13:37:58;;;;;;;8.15;7.43;;;;;;;;;;6081333;29;20264;-71
2022/04/12 13:41:18;;;;;;;7.25;6.65;;;;;;;;;;6082387;29;20614;-71
2022/04/12 13:44:40;;;;;;;6.28;5.72;;;;;;;;;;6083707;29;20240;-69
2022/04/12 13:48:01;;;;;;;7.22;6.53;;;;;;;;;;6083018;29;20341;-70
2022/04/12 13:51:22;;;;;;;6.88;6.07;;;;;;;;;;6085642;29;20236;-70
2022/04/12 13:54:43;;;;;;;6.97;6.38;;;;;;;;;;6081729;29;20232;-70
2022/04/12 13:58:03;;;;;;;8.07;7.38;;;;;;;;;;6081223;29;20484;-69
2022/04/12 14:01:25;;;;;;;8.25;5.72;;;;;;;;;;6077902;29;20240;-70
2022/04/12 14:04:46;;;;;;;7.55;6.72;;;;;;;;;;6078106;29;20755;-69
2022/04/12 14:08:10;;;;;;;8.75;7.35;;;;;;;;;;6076539;29;20548;-71
2022/04/12 14:11:31;;;;;;;7.28;6.32;;;;;;;;;;6075385;29;20268;-70
2022/04/12 14:14:51;;;;;;;7.65;6.05;;;;;;;;;;6090428;29;20996;-70
2022/04/12 14:18:14;;;;;;;7.53;6.82;;;;;;;;;;6094537;29;20819;-73
2022/04/12 14:21:37;;;;;;;7.80;7.10;;;;;;;;;;6094774;29;20554;-72
2022/04/12 14:24:57;;;;;;;6.90;6.05;;;;;;;;;;6091123;29;20619;-74
2022/04/12 14:28:18;;;;;;;9.23;5.95;;;;;;;;;;6091960;29;20232;-73
2022/04/12 14:31:39;;;;;;;6.72;6.13;;;;;;;;;;6090966;29;20252;-71
2022/04/12 14:35:00;;;;;;;11.52;7.75;;;;;;;;;;6097521;29;20236;-71
2022/04/12 14:38:23;;;;;;;7.43;6.72;;;;;;;;;;6078264;29;20565;-71
2022/04/12 14:41:44;;;;;;;8.07;7.07;;;;;;;;;;6064920;29;20320;-69
2022/04/12 14:45:06;;;;;;;9.30;6.82;;;;;;;;;;6066845;29;20236;-72
2022/04/12 14:48:26;;;;;;;7.15;6.45;;;;;;;;;;6070584;29;20237;-70
2022/04/12 14:51:48;;;;;;;8.70;7.78;;;;;;;;;;6076162;29;20336;-69
2022/04/12 14:55:09;;;;;;;7.97;7.28;;;;;;;;;;6070133;29;20240;-70
2022/04/12 14:58:30;;;;;;;7.90;7.18;;;;;;;;;;6073816;29;20236;-72
2022/04/12 15:01:51;;;;;;;7.35;6.28;;;;;;;;;;6059590;29;20236;-69
2022/04/12 15:05:11;;;;;;;7.50;5.80;;;;;;;;;;6071101;29;20232;-71
2022/04/12 15:08:33;;;;;;;7.70;6.05;;;;;;;;;;6089344;29;20240;-71
2022/04/12 15:11:55;;;;;;;6.90;6.22;;;;;;;;;;6098825;29;20236;-71
2022/04/12 15:15:16;;;;;;;8.93;8.02;;;;;;;;;;6097447;29;20228;-71
2022/04/12 15:18:37;;;;;;;8.38;7.57;;;;;;;;;;6087822;29;20232;-69
2022/04/12 15:21:57;;;;;;;7.82;7.03;;;;;;;;;;6087142;29;20240;-69
2022/04/12 15:25:19;;;;;;;7.20;6.47;;;;;;;;;;6090282;29;20300;-71
2022/04/12 15:28:40;;;;;;;7.25;6.53;;;;;;;;;;6088296;29;20228;-68
2022/04/12 15:32:01;;;;;;;7.85;6.80;;;;;;;;;;6091756;29;20232;-68
2022/04/12 15:35:21;;;;;;;7.68;6.78;;;;;;;;;;6096053;29;20669;-68
2022/04/12 15:38:44;;;;;;;8.63;6.63;;;;;;;;;;6094739;29;20232;-68
2022/04/12 15:42:06;;;;;;;7.18;6.50;;;;;;;;;;6090529;29;20236;-68
2022/04/12 15:45:26;;;;;;;7.07;6.50;;;;;;;;;;6092377;29;20229;-69
2022/04/12 15:48:47;;;;;;;9.07;6.13;;;;;;;;;;6091257;29;20236;-69
2022/04/12 15:52:08;;;;;;;8.00;7.07;;;;;;;;;;6090344;29;20233;-67
2022/04/12 15:55:29;;;;;;;7.80;7.03;;;;;;;;;;6091981;29;20244;-69
2022/04/12 15:58:53;;;;;;;5.87;5.37;;;;;;;;;;6077249;29;20607;-69
2022/04/12 16:02:15;;;;;;;7.97;7.17;;;;;;;;;;6087716;29;20244;-68
2022/04/12 16:05:36;;;;;;;6.70;6.00;;;;;;;;;;6084593;29;20768;-70
2022/04/12 16:08:57;;;;;;;7.22;6.53;;;;;;;;;;6069714;29;20720;-71
2022/04/12 16:12:17;;;;;;;7.05;6.35;;;;;;;;;;6079053;29;20237;-71
2022/04/12 16:15:39;;;;;;;6.95;6.05;;;;;;;;;;6071537;29;20591;-71
2022/04/12 16:19:00;;;;;;;7.25;6.55;;;;;;;;;;6079133;29;20228;-71
2022/04/12 16:22:21;;;;;;;7.88;7.07;;;;;;;;;;6074622;29;20618;-71
2022/04/12 16:25:41;;;;;;;6.90;5.90;;;;;;;;;;6078656;29;20319;-70
2022/04/12 16:29:02;;;;;;;6.15;5.63;;;;;;;;;;6082100;29;20327;-71
2022/04/12 16:32:24;;;;;;;10.05;5.38;;;;;;;;;;6078549;29;20241;-71
2022/04/12 16:35:44;;;;;;;6.20;5.63;;;;;;;;;;6078306;29;20232;-71
2022/04/12 16:39:05;;;;;;;7.43;5.80;;;;;;;;;;6081580;29;20232;-71
2022/04/12 16:42:25;;;;;;;6.78;6.15;;;;;;;;;;6080240;29;20229;-71
2022/04/12 16:45:46;;;;;;;6.70;5.72;;;;;;;;;;6083621;29;20244;-70
2022/04/12 16:49:08;;;;;;;6.85;6.25;;;;;;;;;;6079645;29;20316;-71
2022/04/12 16:52:28;;;;;;;6.40;5.50;;;;;;;;;;6075670;29;20658;-73
2022/04/12 16:55:49;;;;;;;7.67;6.60;;;;;;;;;;6080315;29;20240;-72
2022/04/12 16:59:10;;;;;;;5.70;5.10;;;;;;;;;;6078370;29;20295;-73
2022/04/12 17:02:30;;;;;;;7.13;6.20;;;;;;;;;;6074640;29;20550;-72
2022/04/12 17:05:52;;;;;;;6.27;5.30;;;;;;;;;;6077669;29;20259;-71
2022/04/12 17:09:13;;;;;;;6.50;5.93;;;;;;;;;;6081654;29;20912;-74
2022/04/12 17:12:34;;;;;;;6.83;5.53;;;;;;;;;;6082407;29;20241;-72
2022/04/12 17:15:54;;;;;;;5.67;5.07;;;;;;;;;;6079858;29;20569;-71
2022/04/12 17:19:15;;;;;;;7.00;6.10;;;;;;;;;;6083652;29;20236;-71
2022/04/12 17:22:37;;;;;;;7.40;5.70;;;;;;;;;;6083376;29;20228;-71
2022/04/12 17:25:58;;;;;;;5.87;5.03;;;;;;;;;;6083496;29;20262;-72
2022/04/12 17:29:19;;;;;;;8.97;5.33;;;;;;;;;;6085004;29;20256;-72
2022/04/12 17:32:39;;;;;;;6.73;5.87;;;;;;;;;;6080417;29;20229;-70
2022/04/12 17:36:00;;;;;;;6.57;5.60;;;;;;;;;;6090252;29;20235;-71
2022/04/12 17:39:21;;;;;;;6.20;5.60;;;;;;;;;;6088071;29;20607;-72
2022/04/12 17:42:42;;;;;;;6.37;5.10;;;;;;;;;;6092398;29;20347;-72
2022/04/12 17:46:03;;;;;;;5.47;4.97;;;;;;;;;;6089324;29;20228;-72
2022/04/12 17:49:23;;;;;;;6.27;5.67;;;;;;;;;;6084948;29;20264;-72
2022/04/12 17:52:44;;;;;;;7.30;6.57;;;;;;;;;;6091390;29;20229;-73
2022/04/12 17:56:08;;;;;;;6.47;5.90;;;;;;;;;;6088026;29;20323;-70
2022/04/12 17:59:28;;;;;;;7.90;6.60;;;;;;;;;;6083445;29;20228;-71
2022/04/12 18:02:49;;;;;;;6.77;6.17;;;;;;;;;;6088451;29;20610;-70
2022/04/12 18:06:11;;;;;;;6.80;6.17;;;;;;;;;;6088107;29;22071;-70
2022/04/12 18:09:31;;;;;;;10.17;6.40;;;;;;;;;;6087557;29;20228;-71
2022/04/12 18:12:54;;;;;;;7.20;6.00;;;;;;;;;;6081093;29;20240;-71
2022/04/12 18:16:14;;;;;;;8.30;6.63;;;;;;;;;;6083431;29;20236;-71
2022/04/12 18:19:35;;;;;;;16.33;5.50;;;;;;;;;;6083652;29;20312;-70
2022/04/12 18:22:56;;;;;;;6.93;6.23;;;;;;;;;;6086239;29;20233;-70
2022/04/12 18:26:17;;;;;;;6.60;6.00;;;;;;;;;;6086236;29;20225;-71
2022/04/12 18:29:39;;;;;;;6.47;5.83;;;;;;;;;;6084125;29;20240;-70
2022/04/12 18:32:59;;;;;;;9.17;6.13;;;;;;;;;;6079172;29;20236;-71
2022/04/12 18:36:20;;;;;;;8.50;6.17;;;;;;;;;;6076766;29;20233;-68
2022/04/12 18:39:40;;;;;;;6.53;5.60;;;;;;;;;;6079311;29;20359;-70
2022/04/12 18:43:02;;;;;;;7.10;6.00;;;;;;;;;;6079993;29;20328;-71
2022/04/12 18:46:26;;;;;;;6.07;5.43;;;;;;;;;;6081771;29;20895;-71
2022/04/12 18:49:46;;;;;;;6.60;5.93;;;;;;;;;;6082023;29;20248;-70
2022/04/12 18:53:09;;;;;;;5.57;5.07;;;;;;;;;;6078838;29;20232;-71
2022/04/12 18:56:30;;;;;;;7.63;5.37;;;;;;;;;;6080984;29;20244;-70
2022/04/12 18:59:51;;;;;;;6.90;5.50;;;;;;;;;;6081390;29;20517;-71
2022/04/12 19:03:12;;;;;;;7.07;6.37;;;;;;;;;;6082761;29;20256;-71
2022/04/12 19:06:33;;;;;;;5.47;4.97;;;;;;;;;;6085489;29;20610;-71
2022/04/12 19:09:56;;;;;;;9.07;8.17;;;;;;;;;;6081630;29;20232;-70
2022/04/12 19:13:16;;;;;;;6.50;4.70;;;;;;;;;;6080492;29;20270;-71
2022/04/12 19:16:37;;;;;;;5.60;5.07;;;;;;;;;;6082294;29;20233;-72
2022/04/12 19:19:59;;;;;;;6.23;5.63;;;;;;;;;;6083586;29;20229;-71
2022/04/12 19:23:23;;;;;;;6.93;5.67;;;;;;;;;;6077404;29;20233;-71
2022/04/12 19:26:44;;;;;;;7.80;6.50;;;;;;;;;;6078055;29;20233;-70
2022/04/12 19:30:05;;;;;;;5.97;5.40;;;;;;;;;;6069193;29;21028;-70
2022/04/12 19:33:25;;;;;;;6.40;5.80;;;;;;;;;;6080188;29;20854;-70
2022/04/12 19:36:47;;;;;;;6.30;5.23;;;;;;;;;;6082570;29;21007;-71
2022/04/12 19:40:08;;;;;;;5.57;5.07;;;;;;;;;;6079240;29;20723;-70
2022/04/12 19:43:29;;;;;;;7.50;6.00;;;;;;;;;;6079699;29;20237;-71
2022/04/12 19:46:50;;;;;;;5.07;4.40;;;;;;;;;;6071299;29;20237;-72
2022/04/12 19:50:12;;;;;;;5.73;5.13;;;;;;;;;;6085862;29;20631;-71
2022/04/12 19:53:34;;;;;;;8.33;5.97;;;;;;;;;;6077699;29;20233;-72
2022/04/12 19:56:57;;;;;;;5.63;4.63;;;;;;;;;;6072959;29;20232;-70
2022/04/12 20:00:17;;;;;;;6.23;5.63;;;;;;;;;;6076056;29;20686;-71
2022/04/12 20:03:40;;;;;;;6.20;5.23;;;;;;;;;;6080768;29;20240;-70
2022/04/12 20:07:01;;;;;;;6.17;4.97;;;;;;;;;;6082200;29;20244;-70
2022/04/12 20:10:22;;;;;;;6.10;5.50;;;;;;;;;;6083088;29;20591;-71